Aviation Digital Data Service (ADDS)

Output produced by METARs form (2254 UTC 01 March 2021)
found at http://aviationweather.gov/metar/data/
 
METAR text: KLZZ 012235Z AUTO 02008KT 10SM BKN032 BKN055 10/04 A3024 RMK AO2 T01000041
Conditions at: KLZZ (LAMPASAS , TX, US) observed 2235 UTC 01 March 2021
Temperature: 10.0°C (50°F)
Dewpoint: 4.1°C (39°F) [RH = 67%]
Pressure (altimeter): 30.24 inches Hg (1024.1 mb)
Winds: from the NNE (20 degrees) at 9 MPH (8 knots; 4.1 m/s)
Visibility: 10 or more miles (16+ km)
Ceiling: 3200 feet AGL
Clouds: broken clouds at 3200 feet AGL
broken clouds at 5500 feet AGL
Weather: automated observation with no human augmentation;
there may or may not be significant weather present at this time

METAR text: KLZZ 012215Z AUTO 01008KT 10SM OVC030 10/04 A3024 RMK AO2 T00960044
Conditions at: KLZZ (LAMPASAS , TX, US) observed 2215 UTC 01 March 2021
Temperature: 9.6°C (49°F)
Dewpoint: 4.4°C (40°F) [RH = 70%]
Pressure (altimeter): 30.24 inches Hg (1024.1 mb)
Winds: from the N (10 degrees) at 9 MPH (8 knots; 4.1 m/s)
Visibility: 10 or more miles (16+ km)
Ceiling: 3000 feet AGL
Clouds: overcast cloud deck at 3000 feet AGL
Weather: automated observation with no human augmentation;
there may or may not be significant weather present at this time

METAR text: KLZZ 012155Z AUTO 36007KT 10SM OVC026 10/04 A3024 RMK AO2 T00950043
Conditions at: KLZZ (LAMPASAS , TX, US) observed 2155 UTC 01 March 2021
Temperature: 9.5°C (49°F)
Dewpoint: 4.3°C (40°F) [RH = 70%]
Pressure (altimeter): 30.24 inches Hg (1024.1 mb)
Winds: from the N (360 degrees) at 8 MPH (7 knots; 3.6 m/s)
Visibility: 10 or more miles (16+ km)
Ceiling: 2600 feet AGL
Clouds: overcast cloud deck at 2600 feet AGL
Weather: automated observation with no human augmentation;
there may or may not be significant weather present at this time

METAR text: KLZZ 012135Z AUTO 01008KT 10SM OVC026 09/04 A3024 RMK AO2 T00910042
Conditions at: KLZZ (LAMPASAS , TX, US) observed 2135 UTC 01 March 2021
Temperature: 9.1°C (48°F)
Dewpoint: 4.2°C (40°F) [RH = 71%]
Pressure (altimeter): 30.24 inches Hg (1024.1 mb)
Winds: from the N (10 degrees) at 9 MPH (8 knots; 4.1 m/s)
Visibility: 10 or more miles (16+ km)
Ceiling: 2600 feet AGL
Clouds: overcast cloud deck at 2600 feet AGL
Weather: automated observation with no human augmentation;
there may or may not be significant weather present at this time

METAR text: KLZZ 012115Z AUTO 01009G14KT 10SM OVC024 09/05 A3024 RMK AO2 T00920045
Conditions at: KLZZ (LAMPASAS , TX, US) observed 2115 UTC 01 March 2021
Temperature: 9.2°C (49°F)
Dewpoint: 4.5°C (40°F) [RH = 72%]
Pressure (altimeter): 30.24 inches Hg (1024.1 mb)
Winds: from the N (10 degrees) at 10 MPH (9 knots; 4.6 m/s)
gusting to 16 MPH (14 knots; 7.2 m/s)
Visibility: 10 or more miles (16+ km)
Ceiling: 2400 feet AGL
Clouds: overcast cloud deck at 2400 feet AGL
Weather: automated observation with no human augmentation;
there may or may not be significant weather present at this time

METAR text: KLZZ 012055Z AUTO 01007KT 10SM OVC024 09/05 A3024 RMK AO2 T00930049
Conditions at: KLZZ (LAMPASAS , TX, US) observed 2055 UTC 01 March 2021
Temperature: 9.3°C (49°F)
Dewpoint: 4.9°C (41°F) [RH = 74%]
Pressure (altimeter): 30.24 inches Hg (1024.1 mb)
Winds: from the N (10 degrees) at 8 MPH (7 knots; 3.6 m/s)
Visibility: 10 or more miles (16+ km)
Ceiling: 2400 feet AGL
Clouds: overcast cloud deck at 2400 feet AGL
Weather: automated observation with no human augmentation;
there may or may not be significant weather present at this time